Time;durP1;ratioP1;P1;durP2;ratioP2;P2;SDS_P1;SDS_P2;PMS_P1;PMS_P2;Temp;Humidity;BMP_temperature;BMP_pressure;BME280_temperature;BME280_humidity;BME280_pressure;Samples;Min_cycle;Max_cycle;Signal;HPM_P1;HPM_P2
2022/04/04 00:02:25;;;;;;;;;;;;;;;21.16;31.16;101755.75;7282541;19;153328;-58
2022/04/04 00:04:54;;;;;;;;;;;;;;;21.13;31.30;101750.69;7280188;19;151945;-58
2022/04/04 00:07:21;;;;;;;;;;;;;;;21.10;31.39;101745.63;7281811;19;152632;-57
2022/04/04 00:09:48;;;;;;;;;;;;;;;21.06;31.43;101748.19;7280145;19;152501;-58
2022/04/04 00:12:15;;;;;;;;;;;;;;;21.03;31.93;101742.31;7282324;19;151929;-58
2022/04/04 00:14:42;;;;;;;;;;;;;;;20.99;31.63;101741.19;7285504;19;153542;-58
2022/04/04 00:17:09;;;;;;;;;;;;;;;20.97;32.16;101737.84;7282256;19;151955;-58
2022/04/04 00:19:35;;;;;;;;;;;;;;;20.94;31.76;101727.22;7281754;19;152627;-58
2022/04/04 00:22:02;;;;;;;;;;;;;;;20.90;32.12;101715.69;7281348;19;154233;-58
2022/04/04 00:24:29;;;;;;;;;;;;;;;20.85;32.29;101716.56;7281480;19;152025;-58
2022/04/04 00:26:56;;;;;;;;;;;;;;;20.84;32.36;101714.09;7280429;19;152632;-58
2022/04/04 00:29:23;;;;;;;;;;;;;;;20.79;32.62;101706.53;7281353;19;153587;-59
2022/04/04 00:31:50;;;;;;;;;;;;;;;20.78;32.80;101704.00;7279374;19;153326;-59
2022/04/04 00:34:18;;;;;;;;;;;;;;;20.74;32.48;101694.50;7278904;19;152768;-59
2022/04/04 00:36:45;;;;;;;;;;;;;;;20.71;32.48;101687.50;7287003;19;153928;-60
2022/04/04 00:39:16;;;;;;;;;;;;;;;20.70;32.90;101696.19;7282103;19;151940;-60
2022/04/04 00:41:45;;;;;;;;;;;;;;;20.67;32.52;101682.75;7280450;19;153386;-60
2022/04/04 00:44:12;;;;;;;;;;;;;;;20.64;32.89;101678.53;7280516;19;151877;-60
2022/04/04 00:46:39;;;;;;;;;;;;;;;20.64;32.73;101681.34;7281994;19;152938;-59
2022/04/04 00:49:06;;;;;;;;;;;;;;;20.63;33.15;101673.22;7281239;19;153750;-60
2022/04/04 00:51:33;;;;;;;;;;;;;;;20.59;33.03;101667.34;7281211;19;152337;-59
2022/04/04 00:53:59;;;;;;;;;;;;;;;20.55;32.90;101666.25;7282323;19;152693;-59
2022/04/04 00:56:31;;;;;;;;;;;;;;;20.53;33.08;101657.31;7277896;19;153994;-58
2022/04/04 00:58:58;;;;;;;;;;;;;;;20.52;33.27;101666.84;7288479;19;151678;-59
2022/04/04 01:01:26;;;;;;;;;;;;;;;20.50;33.30;101652.25;7278211;19;153847;-58
2022/04/04 01:03:53;;;;;;;;;;;;;;;20.48;33.62;101654.53;7280510;19;151764;-58
2022/04/04 01:06:20;;;;;;;;;;;;;;;20.42;33.55;101645.28;7280391;19;152989;-59
2022/04/04 01:08:47;;;;;;;;;;;;;;;20.42;33.81;101642.50;7280530;19;153275;-58
2022/04/04 01:11:13;;;;;;;;;;;;;;;20.42;33.45;101639.69;7281141;19;151776;-58
2022/04/04 01:13:50;;;;;;;;;;;;;;;20.43;33.57;101632.09;7279705;19;152789;-60
2022/04/04 01:16:17;;;;;;;;;;;;;;;20.37;33.99;101631.28;7276970;19;154157;-58
2022/04/04 01:18:44;;;;;;;;;;;;;;;20.37;33.67;101625.69;7280170;19;152134;-59
2022/04/04 01:21:11;;;;;;;;;;;;;;;20.32;33.98;101622.06;7285535;19;153419;-60
2022/04/04 01:23:40;;;;;;;;;;;;;;;20.28;33.97;101612.50;7277587;19;151811;-57
2022/04/04 01:26:07;;;;;;;;;;;;;;;20.25;34.04;101607.50;7280425;19;153524;-58
2022/04/04 01:28:34;;;;;;;;;;;;;;;20.25;33.97;101607.50;7279363;19;154056;-58
2022/04/04 01:31:01;;;;;;;;;;;;;;;20.20;34.00;101596.31;7281008;19;151897;-57
2022/04/04 01:33:28;;;;;;;;;;;;;;;20.19;34.22;101589.00;7278400;19;154365;-56
2022/04/04 01:35:57;;;;;;;;;;;;;;;20.16;34.15;101586.78;7276835;19;153971;-56
2022/04/04 01:38:24;;;;;;;;;;;;;;;20.12;34.12;101589.34;7280887;19;152240;-57
2022/04/04 01:40:51;;;;;;;;;;;;;;;20.12;34.24;101582.88;7279247;19;153454;-56
2022/04/04 01:43:18;;;;;;;;;;;;;;;20.09;33.91;101580.66;7286371;19;153807;-56
2022/04/04 01:48:42;;;;;;;;;;;;;;;20.03;34.06;101565.84;7279250;19;153457;-56
2022/04/04 01:51:25;;;;;;;;;;;;;;;20.04;34.39;101555.41;7279133;19;151717;-57
2022/04/04 01:53:52;;;;;;;;;;;;;;;19.98;34.50;101561.09;7277094;19;154365;-56
2022/04/04 01:56:19;;;;;;;;;;;;;;;19.96;34.59;101557.72;7277655;19;154192;-57
2022/04/04 01:58:46;;;;;;;;;;;;;;;19.89;34.51;101546.00;7277493;19;151666;-57
2022/04/04 02:01:17;;;;;;;;;;;;;;;19.90;34.77;101538.41;7278112;19;153872;-56
2022/04/04 02:03:45;;;;;;;;;;;;;;;19.87;34.42;101531.41;7286122;19;153766;-56
2022/04/04 02:06:13;;;;;;;;;;;;;;;19.84;34.71;101533.97;7279109;19;152846;-56
2022/04/04 02:08:42;;;;;;;;;;;;;;;19.85;34.99;101521.63;7278912;19;154031;-57
2022/04/04 02:11:09;;;;;;;;;;;;;;;19.82;35.03;101525.84;7277842;19;152061;-58
2022/04/04 02:13:36;;;;;;;;;;;;;;;19.84;35.78;101525.56;7278917;19;152867;-57
2022/04/04 02:16:04;;;;;;;;;;;;;;;19.77;34.73;101514.66;7275171;19;152578;-58
2022/04/04 02:18:32;;;;;;;;;;;;;;;19.78;34.91;101499.50;7278751;19;151651;-57
2022/04/04 02:20:59;;;;;;;;;;;;;;;19.73;35.21;101504.31;7279009;19;153412;-58
2022/04/04 02:23:25;;;;;;;;;;;;;;;19.71;35.43;101496.19;7276886;19;153279;-58
2022/04/04 02:25:53;;;;;;;;;;;;;;;19.75;35.80;101496.44;7286653;19;151700;-58
2022/04/04 02:28:20;;;;;;;;;;;;;;;19.67;35.22;101486.66;7275614;19;153925;-58
2022/04/04 02:30:49;;;;;;;;;;;;;;;19.62;35.59;101474.66;7278041;19;152109;-58
2022/04/04 02:33:16;;;;;;;;;;;;;;;19.59;35.76;101462.06;7278417;19;152083;-57
2022/04/04 02:35:44;;;;;;;;;;;;;;;19.59;35.47;101466.81;7275696;19;153503;-58
2022/04/04 02:38:11;;;;;;;;;;;;;;;19.56;35.51;101462.66;7277728;19;151811;-58
2022/04/04 02:40:38;;;;;;;;;;;;;;;19.53;35.91;101457.63;7275439;19;153399;-57
2022/04/04 02:43:05;;;;;;;;;;;;;;;19.53;35.67;101454.81;7278374;19;153518;-57
2022/04/04 02:45:33;;;;;;;;;;;;;;;19.54;35.76;101446.09;7278517;19;152532;-58
2022/04/04 02:48:00;;;;;;;;;;;;;;;19.49;35.68;101443.34;7284095;19;153777;-57
2022/04/04 02:50:28;;;;;;;;;;;;;;;19.46;36.05;101443.91;7276101;19;152159;-58
2022/04/04 02:52:55;;;;;;;;;;;;;;;19.45;35.87;101447.00;7277134;19;153604;-57
2022/04/04 02:58:08;;;;;;;;;;;;;;;19.42;36.21;101433.53;7282763;19;152391;-58
2022/04/04 03:00:34;;;;;;;;;;;;;;;19.41;35.83;101429.06;7284458;19;152851;-58
2022/04/04 03:03:01;;;;;;;;;;;;;;;19.44;35.88;101420.94;7283253;19;153972;-58
2022/04/04 03:05:28;;;;;;;;;;;;;;;19.38;36.19;101410.88;7284026;19;151947;-58
2022/04/04 03:07:55;;;;;;;;;;;;;;;19.40;35.93;101407.75;7284578;19;152659;-59
2022/04/04 03:10:21;;;;;;;;;;;;;;;19.34;35.86;101412.59;7287664;19;153866;-58
2022/04/04 03:12:53;;;;;;;;;;;;;;;19.43;35.97;101405.28;7283652;19;153278;-59
2022/04/04 03:15:21;;;;;;;;;;;;;;;19.41;36.12;101399.06;7281068;19;154085;-57
2022/04/04 03:17:52;;;;;;;;;;;;;;;19.42;36.30;101397.13;7282861;19;151928;-57
2022/04/04 03:20:20;;;;;;;;;;;;;;;19.41;36.27;101387.88;7283445;19;154925;-57
2022/04/04 03:22:54;;;;;;;;;;;;;;;19.40;35.90;101382.53;7281315;19;153785;-57
2022/04/04 03:25:21;;;;;;;;;;;;;;;19.38;36.08;101382.00;7281990;19;152342;-57
2022/04/04 03:27:48;;;;;;;;;;;;;;;19.39;36.21;101378.94;7284231;19;153569;-57
2022/04/04 03:30:18;;;;;;;;;;;;;;;19.37;36.31;101374.72;7281661;19;153368;-57
2022/04/04 03:32:45;;;;;;;;;;;;;;;19.30;35.67;101377.88;7290896;19;152543;-57
2022/04/04 03:35:16;;;;;;;;;;;;;;;19.34;36.07;101359.34;7282995;19;153352;-57
2022/04/04 03:37:44;;;;;;;;;;;;;;;19.31;35.97;101361.88;7282407;19;151946;-59
2022/04/04 03:40:13;;;;;;;;;;;;;;;19.33;36.47;101354.03;7280007;19;153567;-60
2022/04/04 03:42:41;;;;;;;;;;;;;;;19.28;35.97;101351.25;7282244;19;153807;-60
2022/04/04 03:45:08;;;;;;;;;;;;;;;19.25;36.08;101340.63;7282757;19;152000;-60
2022/04/04 03:47:35;;;;;;;;;;;;;;;19.27;36.54;101332.75;7283362;19;153690;-60
2022/04/04 03:50:01;;;;;;;;;;;;;;;19.19;36.56;101330.59;7281262;19;156034;-59
2022/04/04 03:52:28;;;;;;;;;;;;;;;19.16;36.01;101318.00;7283298;19;152118;-59
2022/04/04 03:54:55;;;;;;;;;;;;;;;19.21;36.38;101317.13;7288934;19;153211;-59
2022/04/04 03:57:22;;;;;;;;;;;;;;;19.15;36.83;101304.28;7281349;19;151710;-57
2022/04/04 03:59:48;;;;;;;;;;;;;;;19.11;36.54;101295.63;7281567;19;152645;-57
2022/04/04 04:02:15;;;;;;;;;;;;;;;19.09;36.74;101295.06;7281317;19;154055;-57
2022/04/04 04:04:43;;;;;;;;;;;;;;;19.10;36.69;101289.19;7281094;19;151846;-58
2022/04/04 04:07:14;;;;;;;;;;;;;;;19.09;36.44;101286.66;7283163;19;153353;-57
2022/04/04 04:09:41;;;;;;;;;;;;;;;19.12;36.75;101285.28;7280759;19;153035;-58
2022/04/04 04:12:08;;;;;;;;;;;;;;;19.16;36.81;101281.59;7282224;19;152262;-58
2022/04/04 04:14:34;;;;;;;;;;;;;;;19.20;37.06;101279.88;7287391;19;152679;-57
2022/04/04 04:17:02;;;;;;;;;;;;;;;19.26;36.96;101258.28;7280853;19;151867;-57
2022/04/04 04:22:14;;;;;;;;;;;;;;;19.33;36.95;101265.22;7280603;19;153896;-58
2022/04/04 04:24:41;;;;;;;;;;;;;;;19.42;36.94;101257.84;7281070;19;151664;-57
2022/04/04 04:27:08;;;;;;;;;;;;;;;19.48;36.74;101259.53;7282769;19;153525;-57
2022/04/04 04:29:34;;;;;;;;;;;;;;;19.56;37.13;101258.03;7280350;19;153148;-57
2022/04/04 04:32:01;;;;;;;;;;;;;;;19.61;37.26;101254.34;7282283;19;151876;-57
2022/04/04 04:34:28;;;;;;;;;;;;;;;19.67;36.90;101230.75;7279060;19;153647;-57
2022/04/04 04:36:54;;;;;;;;;;;;;;;19.73;36.44;101243.56;7285909;19;154067;-57
2022/04/04 04:39:22;;;;;;;;;;;;;;;19.79;36.88;101222.78;7281477;19;154284;-58
2022/04/04 04:41:50;;;;;;;;;;;;;;;19.83;36.68;101213.47;7279204;19;154640;-57
2022/04/04 04:44:16;;;;;;;;;;;;;;;19.89;36.55;101223.50;7281605;19;151925;-58
2022/04/04 04:46:44;;;;;;;;;;;;;;;19.95;36.63;101211.06;7279639;19;152995;-57
2022/04/04 04:49:13;;;;;;;;;;;;;;;20.01;36.57;101211.03;7281076;19;153531;-57
2022/04/04 04:51:47;;;;;;;;;;;;;;;20.07;36.32;101207.03;7278907;19;151655;-57
2022/04/04 04:54:14;;;;;;;;;;;;;;;20.14;36.40;101210.28;7280768;19;153759;-57
2022/04/04 04:56:40;;;;;;;;;;;;;;;20.19;36.42;101213.88;7279044;19;154866;-57
2022/04/04 04:59:07;;;;;;;;;;;;;;;20.25;36.39;101200.63;7287277;19;152038;-57
2022/04/04 05:01:34;;;;;;;;;;;;;;;20.30;36.57;101201.44;7281192;19;154094;-57
2022/04/04 05:04:00;;;;;;;;;;;;;;;20.35;36.42;101197.72;7282164;19;152185;-57
2022/04/04 05:06:27;;;;;;;;;;;;;;;20.39;36.21;101196.00;7280909;19;152144;-57
2022/04/04 05:08:59;;;;;;;;;;;;;;;20.44;36.34;101187.50;7280202;19;154322;-57
2022/04/04 05:11:26;;;;;;;;;;;;;;;20.48;36.38;101177.34;7281226;19;152403;-58
2022/04/04 05:13:53;;;;;;;;;;;;;;;20.53;36.24;101184.84;7278863;19;152240;-57
2022/04/04 05:16:20;;;;;;;;;;;;;;;20.57;36.46;101175.53;7278030;19;153950;-56
2022/04/04 05:18:47;;;;;;;;;;;;;;;20.62;36.42;101177.41;7281259;19;151970;-57
2022/04/04 05:21:13;;;;;;;;;;;;;;;20.66;36.01;101170.88;7284494;19;153351;-57
2022/04/04 05:23:47;;;;;;;;;;;;;;;20.70;35.98;101163.53;7277767;19;151827;-57
2022/04/04 05:26:14;;;;;;;;;;;;;;;20.74;35.95;101170.19;7280395;19;152686;-58
2022/04/04 05:28:40;;;;;;;;;;;;;;;20.80;36.04;101168.16;7279502;19;154059;-57
2022/04/04 05:31:08;;;;;;;;;;;;;;;20.83;36.44;101165.56;7280023;19;151897;-57
2022/04/04 05:33:36;;;;;;;;;;;;;;;20.86;36.38;101162.13;7278771;19;152609;-57
2022/04/04 05:36:05;;;;;;;;;;;;;;;20.90;35.92;101153.91;7279781;19;152354;-57
2022/04/04 05:38:32;;;;;;;;;;;;;;;20.95;36.21;101155.81;7275147;19;151951;-57
2022/04/04 05:41:00;;;;;;;;;;;;;;;20.99;36.07;101156.88;7280422;19;153351;-57
2022/04/04 05:43:28;;;;;;;;;;;;;;;21.03;36.31;101163.56;7285082;19;153942;-57
2022/04/04 05:45:54;;;;;;;;;;;;;;;21.06;36.03;101154.50;7280725;19;153523;-57
2022/04/04 05:48:23;;;;;;;;;;;;;;;21.09;36.36;101151.91;7275780;19;152928;-57
2022/04/04 05:50:50;;;;;;;;;;;;;;;21.12;35.93;101154.09;7279759;19;151778;-57
2022/04/04 05:53:16;;;;;;;;;;;;;;;21.17;36.15;101156.84;7279346;19;152718;-57
2022/04/04 05:55:44;;;;;;;;;;;;;;;21.20;36.23;101152.63;7276759;19;154463;-57
2022/04/04 05:58:11;;;;;;;;;;;;;;;21.26;36.35;101142.94;7277367;19;152359;-56
2022/04/04 06:00:38;;;;;;;;;;;;;;;21.29;35.72;101142.34;7277598;19;153392;-56
2022/04/04 06:03:06;;;;;;;;;;;;;;;21.33;36.03;101142.53;7279326;19;153630;-57
2022/04/04 06:05:34;;;;;;;;;;;;;;;21.35;36.14;101143.09;7283689;19;151486;-57
2022/04/04 06:08:01;;;;;;;;;;;;;;;21.38;35.82;101134.84;7277993;19;154905;-57
2022/04/04 06:10:28;;;;;;;;;;;;;;;21.40;35.67;101135.38;7278073;19;152236;-57
2022/04/04 06:12:55;;;;;;;;;;;;;;;21.43;35.99;101134.75;7278734;19;153209;-57
2022/04/04 06:15:21;;;;;;;;;;;;;;;21.46;36.00;101139.75;7274484;19;153474;-57
2022/04/04 06:17:48;;;;;;;;;;;;;;;21.49;35.92;101125.06;7277519;19;151578;-57
2022/04/04 06:20:15;;;;;;;;;;;;;;;21.52;36.16;101121.66;7278083;19;153287;-58
2022/04/04 06:22:41;;;;;;;;;;;;;;;21.55;35.71;101114.56;7278059;19;154263;-57
2022/04/04 06:25:12;;;;;;;;;;;;;;;21.56;36.18;101105.81;7284922;19;152502;-57
2022/04/04 06:27:42;;;;;;;;;;;;;;;21.59;35.81;101102.38;7277079;19;154453;-56
2022/04/04 06:30:09;;;;;;;;;;;;;;;21.64;35.87;101109.88;7279035;19;151783;-58
2022/04/04 06:32:39;;;;;;;;;;;;;;;21.67;35.71;101109.25;7280366;19;152635;-57
2022/04/04 06:35:06;;;;;;;;;;;;;;;21.68;35.61;101103.31;7282108;19;154141;-57
2022/04/04 06:37:33;;;;;;;;;;;;;;;21.74;35.91;101099.28;7281665;19;151951;-57
2022/04/04 06:40:00;;;;;;;;;;;;;;;21.74;35.95;101093.66;7284684;19;153737;-57
2022/04/04 06:42:26;;;;;;;;;;;;;;;21.78;36.23;101087.38;7281640;19;153831;-57
2022/04/04 06:44:57;;;;;;;;;;;;;;;21.80;35.85;101091.56;7284235;19;151889;-57
2022/04/04 06:47:26;;;;;;;;;;;;;;;21.82;35.77;101089.25;7288707;19;154225;-57
2022/04/04 06:49:53;;;;;;;;;;;;;;;21.86;35.69;101086.63;7285112;19;152099;-57
2022/04/04 06:52:20;;;;;;;;;;;;;;;21.88;36.17;101081.53;7283063;19;153220;-56
2022/04/04 06:54:47;;;;;;;;;;;;;;;21.90;36.00;101079.22;7283308;19;153932;-57
2022/04/04 06:57:15;;;;;;;;;;;;;;;21.92;35.67;101083.41;7284309;19;152225;-58
2022/04/04 06:59:42;;;;;;;;;;;;;;;21.95;35.76;101071.56;7284864;19;152651;-60
2022/04/04 07:02:09;;;;;;;;;;;;;;;21.96;35.63;101069.56;7281637;19;153820;-59
2022/04/04 07:04:37;;;;;;;;;;;;;;;21.96;36.12;101070.41;7283659;19;152143;-58
2022/04/04 07:07:04;;;;;;;;;;;;;;;21.97;35.67;101066.47;7284790;19;153441;-58
2022/04/04 07:09:31;;;;;;;;;;;;;;;21.98;35.63;101061.66;7291003;19;156472;-59
2022/04/04 07:11:57;;;;;;;;;;;;;;;21.99;35.49;101057.69;7283788;19;151722;-57
2022/04/04 07:14:24;;;;;;;;;;;;;;;21.99;35.56;101055.69;7281475;19;153688;-57
2022/04/04 07:16:53;;;;;;;;;;;;;;;21.99;35.54;101058.50;7283770;19;151630;-58
2022/04/04 07:19:23;;;;;;;;;;;;;;;21.98;36.00;101050.41;7283034;19;152904;-56
2022/04/04 07:21:50;;;;;;;;;;;;;;;21.95;35.77;101048.22;7279626;19;153752;-56
2022/04/04 07:24:18;;;;;;;;;;;;;;;21.95;35.50;101036.97;7282934;19;151947;-57
2022/04/04 07:26:45;;;;;;;;;;;;;;;21.97;35.42;101035.50;7284451;19;153254;-58
2022/04/04 07:29:17;;;;;;;;;;;;;;;21.96;35.87;101038.63;7283487;19;153347;-58
2022/04/04 07:31:48;;;;;;;;;;;;;;;21.93;35.86;101036.47;7291226;19;152104;-58
2022/04/04 07:34:15;;;;;;;;;;;;;;;21.91;35.83;101028.28;7282913;19;154269;-58
2022/04/04 07:36:41;;;;;;;;;;;;;;;21.88;35.64;101020.50;7282694;19;151938;-58
2022/04/04 07:39:08;;;;;;;;;;;;;;;21.87;35.70;101023.63;7281708;19;152078;-58
2022/04/04 07:41:37;;;;;;;;;;;;;;;21.85;35.81;101032.34;7279322;19;153197;-59
2022/04/04 07:44:04;;;;;;;;;;;;;;;21.81;35.77;101020.06;7282847;19;151843;-56
2022/04/04 07:46:31;;;;;;;;;;;;;;;21.78;35.60;101020.72;7284777;19;152925;-58
2022/04/04 07:48:58;;;;;;;;;;;;;;;21.81;36.36;101024.88;7282828;19;154099;-57
2022/04/04 07:51:25;;;;;;;;;;;;;;;21.73;35.46;101010.41;7284419;19;151691;-58
2022/04/04 07:53:52;;;;;;;;;;;;;;;21.69;35.74;101012.19;7288701;19;153458;-58
2022/04/04 07:56:21;;;;;;;;;;;;;;;21.67;35.79;101014.47;7283463;19;151531;-58
2022/04/04 07:58:48;;;;;;;;;;;;;;;21.64;36.02;101012.28;7281055;19;153082;-57
2022/04/04 08:01:15;;;;;;;;;;;;;;;21.59;35.86;101003.97;7281769;19;153249;-59
2022/04/04 08:03:44;;;;;;;;;;;;;;;21.54;36.26;100994.81;7282503;19;152359;-58
2022/04/04 08:06:11;;;;;;;;;;;;;;;21.53;35.87;100998.78;7281197;19;152690;-59
2022/04/04 08:08:37;;;;;;;;;;;;;;;21.49;35.92;100992.94;7281612;19;153357;-58
2022/04/04 08:11:05;;;;;;;;;;;;;;;21.44;36.52;100993.03;7282382;19;152082;-59
2022/04/04 08:13:32;;;;;;;;;;;;;;;21.42;36.27;100986.91;7280396;19;153431;-57
2022/04/04 08:16:00;;;;;;;;;;;;;;;21.40;36.50;100993.97;7289021;19;152032;-57
2022/04/04 08:18:27;;;;;;;;;;;;;;;21.35;36.82;100980.88;7280889;19;153751;-56
2022/04/04 08:20:55;;;;;;;;;;;;;;;21.33;36.33;100985.16;7282480;19;153639;-57
2022/04/04 08:23:31;;;;;;;;;;;;;;;21.30;36.74;100981.00;7280303;19;152256;-56
2022/04/04 08:25:58;;;;;;;;;;;;;;;21.28;36.73;100977.66;7282487;19;153474;-57
2022/04/04 08:28:28;;;;;;;;;;;;;;;21.23;36.94;100974.94;7280963;19;153725;-57
2022/04/04 08:30:55;;;;;;;;;;;;;;;21.19;36.73;100969.13;7281325;19;152104;-60
2022/04/04 08:33:24;;;;;;;;;;;;;;;21.15;37.13;100973.72;7283069;19;152619;-57
2022/04/04 08:35:53;;;;;;;;;;;;;;;21.12;37.25;100965.84;7287404;19;153708;-58
2022/04/04 08:38:20;;;;;;;;;;;;;;;21.11;37.65;100972.66;7280969;19;153179;-57
2022/04/04 08:40:51;;;;;;;;;;;;;;;21.12;37.26;100965.06;7280562;19;154110;-59
2022/04/04 08:43:18;;;;;;;;;;;;;;;21.06;37.83;100966.28;7283256;19;152179;-58
2022/04/04 08:45:47;;;;;;;;;;;;;;;21.01;37.50;100970.03;7280292;19;153301;-58
2022/04/04 08:48:15;;;;;;;;;;;;;;;20.96;37.50;100958.06;7280580;19;154054;-57
2022/04/04 08:50:42;;;;;;;;;;;;;;;20.92;37.71;100957.84;7282044;19;152061;-59
2022/04/04 08:53:10;;;;;;;;;;;;;;;20.90;37.71;100960.13;7275703;19;153775;-58
2022/04/04 08:55:37;;;;;;;;;;;;;;;20.88;37.90;100961.59;7276039;19;154194;-59
2022/04/04 08:58:03;;;;;;;;;;;;;;;20.91;37.47;100956.19;7285595;19;151873;-57
2022/04/04 09:00:30;;;;;;;;;;;;;;;20.97;37.75;100962.53;7278067;19;152853;-58
2022/04/04 09:02:58;;;;;;;;;;;;;;;20.95;37.27;100959.19;7276331;19;152212;-57
2022/04/04 09:05:25;;;;;;;;;;;;;;;20.54;37.39;100947.91;7277168;19;154070;-59
2022/04/04 09:08:03;;;;;;;;;;;;;;;20.79;37.57;100945.47;7277190;19;153894;-58
2022/04/04 09:10:30;;;;;;;;;;;;;;;20.89;37.17;100933.22;7278336;19;151888;-59
2022/04/04 09:13:09;;;;;;;;;;;;;;;20.91;36.59;100932.88;7278410;19;153606;-57
2022/04/04 09:15:56;;;;;;;;;;;;;;;20.89;37.12;100932.38;7274694;19;154434;-58
2022/04/04 09:18:35;;;;;;;;;;;;;;;20.92;36.62;100917.69;7277415;19;152156;-59
2022/04/04 09:21:09;;;;;;;;;;;;;;;20.96;36.60;100935.59;7284340;19;153911;-60
2022/04/04 09:23:42;;;;;;;;;;;;;;;21.01;36.56;100927.91;7278466;19;151788;-58
2022/04/04 09:26:25;;;;;;;;;;;;;;;21.05;36.45;100923.31;7275929;19;152756;-59
2022/04/04 09:28:52;;;;;;;;;;;;;;;21.08;36.27;100925.47;7276725;19;153904;-59
2022/04/04 09:31:19;;;;;;;;;;;;;;;21.14;36.27;100926.25;7278675;19;152361;-59
2022/04/04 09:33:46;;;;;;;;;;;;;;;21.17;36.33;100920.00;7274896;19;152824;-59
2022/04/04 09:36:12;;;;;;;;;;;;;;;21.21;36.07;100926.69;7277730;19;153629;-59
2022/04/04 09:38:42;;;;;;;;;;;;;;;21.24;36.16;100920.41;7276466;19;151715;-58
2022/04/04 09:41:09;;;;;;;;;;;;;;;21.29;36.33;100925.94;7277708;19;152744;-58
2022/04/04 09:43:55;;;;;;;;;;;;;;;21.33;36.11;100928.94;7283342;19;153613;-59
2022/04/04 09:46:22;;;;;;;;;;;;;;;21.36;36.09;100915.09;7276019;19;153550;-59
2022/04/04 09:49:05;;;;;;;;;;;;;;;21.42;36.21;100913.84;7275974;19;153391;-58
2022/04/04 09:51:38;;;;;;;;;;;;;;;21.45;36.06;100913.19;7276121;19;152093;-59
2022/04/04 09:54:07;;;;;;;;;;;;;;;21.49;35.99;100911.41;7275552;19;152861;-58
2022/04/04 09:56:34;;;;;;;;;;;;;;;21.52;36.15;100916.44;7275703;19;153101;-58
2022/04/04 09:59:02;;;;;;;;;;;;;;;21.57;35.76;100909.84;7274528;19;151838;-59
2022/04/04 10:01:30;;;;;;;;;;;;;;;21.60;35.76;100906.41;7275050;19;152329;-59
2022/04/04 10:03:57;;;;;;;;;;;;;;;21.64;35.76;100899.81;7276517;19;152781;-59
2022/04/04 10:06:26;;;;;;;;;;;;;;;21.67;35.98;100898.34;7283721;19;153609;-58
2022/04/04 10:08:55;;;;;;;;;;;;;;;21.70;35.90;100895.75;7276023;19;153302;-59
2022/04/04 10:11:22;;;;;;;;;;;;;;;21.72;35.44;100886.97;7277917;19;151777;-58
2022/04/04 10:13:50;;;;;;;;;;;;;;;21.73;35.71;100892.28;7275693;19;152771;-59
2022/04/04 10:16:17;;;;;;;;;;;;;;;21.74;35.75;100885.53;7275797;19;154273;-57
2022/04/04 10:18:44;;;;;;;;;;;;;;;21.74;35.67;100879.91;7274807;19;152433;-60
2022/04/04 10:21:11;;;;;;;;;;;;;;;21.75;35.58;100883.53;7277316;19;152120;-58
2022/04/04 10:23:39;;;;;;;;;;;;;;;21.76;35.43;100893.63;7276215;19;154192;-58
2022/04/04 10:26:07;;;;;;;;;;;;;;;21.74;35.75;100877.09;7283641;19;152279;-58
2022/04/04 10:28:36;;;;;;;;;;;;;;;21.74;35.54;100871.47;7275323;19;154344;-59
2022/04/04 10:31:16;;;;;;;;;;;;;;;21.74;35.76;100868.66;7276696;19;151539;-59
2022/04/04 10:33:45;;;;;;;;;;;;;;;21.73;35.39;100877.41;7275392;19;153135;-59
2022/04/04 10:36:15;;;;;;;;;;;;;;;21.73;35.66;100877.41;7272370;19;153179;-58
2022/04/04 10:38:46;;;;;;;;;;;;;;;21.72;35.40;100865.31;7271470;19;152224;-59
2022/04/04 10:41:14;;;;;;;;;;;;;;;21.72;35.53;100870.94;7274290;19;153472;-60
2022/04/04 10:43:48;;;;;;;;;;;;;;;21.70;35.76;100855.53;7273534;19;155018;-58
2022/04/04 10:46:19;;;;;;;;;;;;;;;21.68;35.57;100850.22;7252447;19;152436;-60
2022/04/04 10:49:06;;;;;;;;;;;;;;;21.68;35.86;100861.47;7266915;19;154018;-58
2022/04/04 10:51:34;;;;;;;;;;;;;;;21.70;35.76;100841.50;7270601;19;154823;-59
2022/04/04 10:54:05;;;;;;;;;;;;;;;21.71;35.82;100848.78;7272909;19;152710;-60
2022/04/04 10:56:33;;;;;;;;;;;;;;;21.74;35.84;100846.16;7271116;19;153808;-59
2022/04/04 10:59:28;;;;;;;;;;;;;;;21.77;35.63;100846.66;7271977;19;152051;-60
2022/04/04 11:01:56;;;;;;;;;;;;;;;21.78;35.66;100849.16;7269217;19;152453;-57
2022/04/04 11:04:23;;;;;;;;;;;;;;;21.77;35.80;100846.66;7272228;19;153803;-57
2022/04/04 11:09:51;;;;;;;;;;;;;;;21.72;35.96;100830.72;7271604;19;151960;-57
2022/04/04 11:12:20;;;;;;;;;;;;;;;21.70;36.05;100830.25;7277998;19;153852;-58
2022/04/04 11:14:54;;;;;;;;;;;;;;;21.68;36.37;100832.53;7270170;19;152835;-58
2022/04/04 11:17:36;;;;;;;;;;;;;;;21.68;35.97;100824.09;7269659;19;152690;-57
2022/04/04 11:20:31;;;;;;;;;;;;;;;21.64;36.40;100809.00;7277392;19;151779;-57
2022/04/04 11:22:59;;;;;;;;;;;;;;;21.64;36.43;100818.28;7278940;19;152141;-58
2022/04/04 11:25:29;;;;;;;;;;;;;;;21.60;36.48;100806.00;7277895;19;154292;-57
2022/04/04 11:27:57;;;;;;;;;;;;;;;21.58;36.33;100805.47;7275583;19;153694;-57
2022/04/04 11:30:25;;;;;;;;;;;;;;;21.55;36.57;100800.50;7279096;19;152662;-57
2022/04/04 11:33:07;;;;;;;;;;;;;;;21.53;36.57;100799.97;7276909;19;154431;-58
2022/04/04 11:35:34;;;;;;;;;;;;;;;21.53;36.27;100793.56;7286591;19;152415;-58
2022/04/04 11:38:03;;;;;;;;;;;;;;;21.48;36.76;100793.69;7277184;19;154093;-58
2022/04/04 11:40:34;;;;;;;;;;;;;;;21.44;36.74;100796.28;7276171;19;152309;-57
2022/04/04 11:43:02;;;;;;;;;;;;;;;21.43;36.76;100803.06;7277701;19;152834;-57
2022/04/04 11:45:35;;;;;;;;;;;;;;;21.39;36.73;100796.44;7277988;19;153332;-58
2022/04/04 11:48:07;;;;;;;;;;;;;;;21.37;36.92;100795.91;7275267;19;152435;-58
2022/04/04 11:50:35;;;;;;;;;;;;;;;21.34;37.29;100796.53;7276155;19;154196;-58
2022/04/04 11:53:03;;;;;;;;;;;;;;;21.32;36.95;100792.38;7278776;19;153493;-58
2022/04/04 11:55:31;;;;;;;;;;;;;;;21.28;37.14;100789.38;7275753;19;152356;-57
2022/04/04 11:57:59;;;;;;;;;;;;;;;21.23;37.56;100793.13;7282825;19;153217;-58
2022/04/04 12:00:31;;;;;;;;;;;;;;;21.21;37.20;100794.63;7277231;19;152084;-57
2022/04/04 12:03:04;;;;;;;;;;;;;;;21.17;37.41;100794.38;7274389;19;153784;-57
2022/04/04 12:05:33;;;;;;;;;;;;;;;21.15;37.72;100787.44;7275734;19;154165;-57
2022/04/04 12:08:00;;;;;;;;;;;;;;;21.11;37.61;100792.00;7278581;19;152093;-58
2022/04/04 12:10:31;;;;;;;;;;;;;;;21.08;37.46;100787.00;7278309;19;153020;-58
2022/04/04 12:13:03;;;;;;;;;;;;;;;21.04;37.66;100783.16;7276582;19;154825;-58
2022/04/04 12:15:32;;;;;;;;;;;;;;;21.01;37.76;100776.22;7272754;19;152267;-57
2022/04/04 12:17:59;;;;;;;;;;;;;;;20.98;37.89;100773.19;7276759;19;154042;-58
2022/04/04 12:20:36;;;;;;;;;;;;;;;20.95;37.67;100765.38;7281539;19;154582;-57
2022/04/04 12:25:53;;;;;;;;;;;;;;;20.88;38.23;100762.19;7276256;19;153308;-58
2022/04/04 12:28:25;;;;;;;;;;;;;;;20.85;37.96;100760.84;7277373;19;152071;-59
2022/04/04 12:30:53;;;;;;;;;;;;;;;20.82;38.18;100765.13;7275266;19;153718;-57
2022/04/04 12:33:29;;;;;;;;;;;;;;;20.81;38.22;100769.06;7276451;19;154335;-58
2022/04/04 12:35:55;;;;;;;;;;;;;;;20.76;38.19;100757.94;7275575;19;152707;-58
2022/04/04 12:38:41;;;;;;;;;;;;;;;20.74;38.18;100757.44;7276820;19;152614;-57
2022/04/04 12:41:15;;;;;;;;;;;;;;;20.71;38.46;100744.03;7279064;19;153451;-56
2022/04/04 12:43:44;;;;;;;;;;;;;;;20.67;38.24;100748.59;7275340;19;153063;-58
2022/04/04 12:46:27;;;;;;;;;;;;;;;20.67;38.46;100744.97;7275551;19;154292;-58
2022/04/04 12:49:15;;;;;;;;;;;;;;;20.64;38.63;100749.22;7274381;19;152356;-57
2022/04/04 12:51:59;;;;;;;;;;;;;;;20.59;38.67;100749.34;7272187;19;153595;-57